createdAt,value
2019-03-09T00:01:12.901Z,8.20
2019-03-09T00:03:42.188Z,7.30
2019-03-09T00:06:13.443Z,6.23
2019-03-09T00:08:42.491Z,6.77
2019-03-09T00:11:11.784Z,6.87
2019-03-09T00:13:41.176Z,7.10
2019-03-09T00:16:10.522Z,7.00
2019-03-09T00:18:39.836Z,5.80
2019-03-09T00:21:09.159Z,5.13
2019-03-09T00:23:56.718Z,5.43
2019-03-09T00:26:27.655Z,6.70
2019-03-09T00:29:01.567Z,5.67
2019-03-09T00:31:35.090Z,4.83
2019-03-09T00:34:04.478Z,5.10
2019-03-09T00:36:33.765Z,5.10
2019-03-09T00:39:04.648Z,4.40
2019-03-09T00:41:35.574Z,4.93
2019-03-09T00:44:04.879Z,4.87
2019-03-09T00:46:34.170Z,4.47
2019-03-09T00:49:03.480Z,7.33
2019-03-09T00:51:32.785Z,8.90
2019-03-09T00:54:02.110Z,10.53
2019-03-09T00:56:31.481Z,8.53
2019-03-09T00:59:00.785Z,9.03
2019-03-09T01:01:30.083Z,8.37
2019-03-09T01:03:59.391Z,8.53
2019-03-09T01:06:28.703Z,8.60
2019-03-09T01:08:58.006Z,7.80
2019-03-09T01:11:27.303Z,6.93
2019-03-09T01:13:56.615Z,6.40
2019-03-09T01:16:26.104Z,5.60
2019-03-09T01:18:55.442Z,5.53
2019-03-09T01:21:24.740Z,4.93
2019-03-09T01:23:54.130Z,4.60
2019-03-09T01:26:23.426Z,5.40
2019-03-09T01:28:52.730Z,4.57
2019-03-09T01:31:22.022Z,4.70
2019-03-09T01:33:51.341Z,4.53
2019-03-09T01:36:20.646Z,4.93
2019-03-09T01:38:49.962Z,4.50
2019-03-09T01:41:19.284Z,4.23
2019-03-09T01:43:48.593Z,3.60
2019-03-09T01:46:17.891Z,3.53
2019-03-09T01:48:47.190Z,3.70
2019-03-09T01:51:16.492Z,3.67
2019-03-09T01:53:45.795Z,3.73
2019-03-09T01:56:15.106Z,3.67
2019-03-09T01:58:44.424Z,3.67
2019-03-09T02:01:13.730Z,3.23
2019-03-09T02:03:43.032Z,3.53
2019-03-09T02:06:12.417Z,3.23
2019-03-09T02:08:41.712Z,3.47
2019-03-09T02:11:11.009Z,3.00
2019-03-09T02:13:40.311Z,2.60
2019-03-09T02:16:09.669Z,2.90
2019-03-09T02:18:38.982Z,3.13
2019-03-09T02:21:08.346Z,2.77
2019-03-09T02:23:37.704Z,2.73
2019-03-09T02:26:07.024Z,2.60
2019-03-09T02:28:36.317Z,2.20
2019-03-09T02:31:05.612Z,2.53
2019-03-09T02:33:34.922Z,2.87
2019-03-09T02:36:04.220Z,2.60
2019-03-09T02:38:35.159Z,2.53
2019-03-09T02:41:05.428Z,2.23
2019-03-09T02:43:34.784Z,2.10
2019-03-09T02:46:04.130Z,2.10
2019-03-09T02:48:33.472Z,2.13
2019-03-09T02:51:02.810Z,2.10
2019-03-09T02:53:32.131Z,2.27
2019-03-09T02:56:02.501Z,2.40
2019-03-09T02:58:31.855Z,2.50
2019-03-09T03:01:11.879Z,2.30
2019-03-09T03:03:41.160Z,2.30
2019-03-09T03:06:10.535Z,2.40
2019-03-09T03:08:39.830Z,2.50
2019-03-09T03:11:09.142Z,1.90
2019-03-09T03:13:38.414Z,2.30
2019-03-09T03:16:07.792Z,1.90
2019-03-09T03:18:37.104Z,2.07
2019-03-09T03:21:06.394Z,1.60
2019-03-09T03:23:35.708Z,2.20
2019-03-09T03:26:05.005Z,2.50
2019-03-09T03:28:34.308Z,1.90
2019-03-09T03:31:03.622Z,2.10
2019-03-09T03:33:32.926Z,2.00
2019-03-09T03:36:02.394Z,2.17
2019-03-09T03:38:31.680Z,1.80
2019-03-09T03:41:01.047Z,1.77
2019-03-09T03:43:30.344Z,2.00
2019-03-09T03:45:59.784Z,1.93
2019-03-09T03:48:29.168Z,2.30
2019-03-09T03:50:58.464Z,2.00
2019-03-09T03:53:27.771Z,1.93
2019-03-09T03:55:57.142Z,1.40
2019-03-09T03:58:26.489Z,2.10
2019-03-09T04:00:55.851Z,1.90
2019-03-09T04:03:25.174Z,1.60
2019-03-09T04:05:54.462Z,2.10
2019-03-09T04:08:23.834Z,1.83
2019-03-09T04:10:53.211Z,1.90
2019-03-09T04:13:22.536Z,1.77
2019-03-09T04:15:51.829Z,1.60
2019-03-09T04:18:21.218Z,1.50
2019-03-09T04:20:50.502Z,1.87
2019-03-09T04:23:19.836Z,2.00
2019-03-09T04:25:49.190Z,2.23
2019-03-09T04:28:18.509Z,1.40
2019-03-09T04:30:48.780Z,1.90
2019-03-09T04:33:18.095Z,1.70
2019-03-09T04:35:47.379Z,1.70
2019-03-09T04:38:16.738Z,1.37
2019-03-09T04:40:46.035Z,1.23
2019-03-09T04:43:15.403Z,1.00
2019-03-09T04:45:44.694Z,1.03
2019-03-09T04:48:13.999Z,1.20
2019-03-09T04:50:43.286Z,1.20
2019-03-09T04:53:12.656Z,1.30
2019-03-09T04:55:41.944Z,1.33
2019-03-09T04:58:11.264Z,1.10
2019-03-09T05:00:40.554Z,1.30
2019-03-09T05:03:09.859Z,1.20
2019-03-09T05:05:39.159Z,1.37
2019-03-09T05:08:11.871Z,0.93
2019-03-09T05:10:47.046Z,1.20
2019-03-09T05:13:22.892Z,1.20
2019-03-09T05:15:52.191Z,1.27
2019-03-09T05:18:21.498Z,1.10
2019-03-09T05:20:50.794Z,1.10
2019-03-09T05:23:20.087Z,1.10
2019-03-09T05:25:49.394Z,1.10
2019-03-09T05:28:18.711Z,0.87
2019-03-09T05:30:48.010Z,1.20
2019-03-09T05:33:17.317Z,2.00
2019-03-09T05:35:46.630Z,5.20
2019-03-09T05:38:15.914Z,1.80
2019-03-09T05:40:45.199Z,2.70
2019-03-09T05:43:14.490Z,3.07
2019-03-09T05:45:43.806Z,1.30
2019-03-09T05:48:13.091Z,1.77
2019-03-09T05:50:42.406Z,1.60
2019-03-09T05:53:14.414Z,3.17
2019-03-09T05:55:43.803Z,13.47
2019-03-09T05:58:13.108Z,13.77
2019-03-09T06:00:43.035Z,19.97
2019-03-09T06:03:12.336Z,7.47
2019-03-09T06:05:46.859Z,6.70
2019-03-09T06:08:16.176Z,3.87
2019-03-09T06:10:45.466Z,2.83
2019-03-09T06:13:14.761Z,1.70
2019-03-09T06:15:44.173Z,3.40
2019-03-09T06:18:13.534Z,1.53
2019-03-09T06:20:42.835Z,2.00
2019-03-09T06:23:12.154Z,2.40
2019-03-09T06:25:41.463Z,5.60
2019-03-09T06:28:10.758Z,1.70
2019-03-09T06:30:40.105Z,2.90
2019-03-09T06:33:23.127Z,4.67
2019-03-09T06:36:10.634Z,6.97
2019-03-09T06:38:45.802Z,3.20
2019-03-09T06:41:39.936Z,5.47
2019-03-09T06:44:09.217Z,3.63
2019-03-09T06:46:38.555Z,7.50
2019-03-09T06:49:07.846Z,7.17
2019-03-09T06:51:37.159Z,4.80
2019-03-09T06:54:07.542Z,1.50
2019-03-09T06:56:36.848Z,1.13
2019-03-09T06:59:06.145Z,2.03
2019-03-09T07:01:35.461Z,2.27
2019-03-09T07:04:04.821Z,5.40
2019-03-09T07:06:34.210Z,6.07
2019-03-09T07:09:04.963Z,1.93
2019-03-09T07:11:35.898Z,10.23
2019-03-09T07:14:41.967Z,2.70
2019-03-09T07:17:11.270Z,1.87
2019-03-09T07:19:40.572Z,2.40
2019-03-09T07:22:09.884Z,11.87
2019-03-09T07:24:39.203Z,5.17
2019-03-09T07:27:08.524Z,9.97
2019-03-09T07:29:37.859Z,9.90
2019-03-09T07:32:07.175Z,22.07
2019-03-09T07:34:36.493Z,23.57
2019-03-09T07:37:05.781Z,6.00
2019-03-09T07:39:35.106Z,6.93
2019-03-09T07:42:04.407Z,10.73
2019-03-09T07:44:33.715Z,18.43
2019-03-09T07:47:03.012Z,3.23
2019-03-09T07:49:32.338Z,5.23
2019-03-09T07:52:01.628Z,8.47
2019-03-09T07:54:30.956Z,5.60
2019-03-09T07:57:00.256Z,5.70
2019-03-09T07:59:29.570Z,6.20
2019-03-09T08:01:59.836Z,3.53
2019-03-09T08:04:29.477Z,7.10
2019-03-09T08:06:58.851Z,11.83
2019-03-09T08:09:28.151Z,8.13
2019-03-09T08:11:57.461Z,11.87
2019-03-09T08:14:26.778Z,15.50
2019-03-09T08:16:56.112Z,16.20
2019-03-09T08:19:25.436Z,5.20
2019-03-09T08:21:54.806Z,8.07
2019-03-09T08:24:24.133Z,10.37
2019-03-09T08:26:53.434Z,6.13
2019-03-09T08:29:22.740Z,6.73
2019-03-09T08:31:52.061Z,4.73
2019-03-09T08:34:21.492Z,5.03
2019-03-09T08:36:50.814Z,4.63
2019-03-09T08:39:20.120Z,4.37
2019-03-09T08:41:49.507Z,3.20
2019-03-09T08:44:18.863Z,3.93
2019-03-09T08:46:48.232Z,2.93
2019-03-09T08:49:17.557Z,2.03
2019-03-09T08:51:46.893Z,3.00
2019-03-09T08:54:16.263Z,1.93
2019-03-09T08:56:46.663Z,2.07
2019-03-09T08:59:16.021Z,20.00
2019-03-09T09:01:45.382Z,3.63
2019-03-09T09:04:14.694Z,1.10
2019-03-09T09:06:44.023Z,2.00
2019-03-09T09:09:13.348Z,1.50
2019-03-09T09:11:42.739Z,1.50
2019-03-09T09:14:12.044Z,1.37
2019-03-09T09:16:41.347Z,1.20
2019-03-09T09:19:10.668Z,0.80
2019-03-09T09:21:39.984Z,1.70
2019-03-09T09:24:09.303Z,1.67
2019-03-09T09:26:38.595Z,1.40
2019-03-09T09:29:07.945Z,2.07
2019-03-09T09:31:37.246Z,14.83
2019-03-09T09:34:06.700Z,4.27
2019-03-09T09:36:36.251Z,1.47
2019-03-09T09:39:07.690Z,3.30
2019-03-09T09:41:38.625Z,5.30
2019-03-09T09:44:07.931Z,3.00
2019-03-09T09:46:37.230Z,3.10
2019-03-09T09:49:06.620Z,4.37
2019-03-09T09:51:35.923Z,3.77
2019-03-09T09:54:06.210Z,5.23
2019-03-09T09:56:35.511Z,2.50
2019-03-09T09:59:04.839Z,1.80
2019-03-09T10:01:34.475Z,3.63
2019-03-09T10:04:04.956Z,3.40
2019-03-09T10:06:34.563Z,1.80
2019-03-09T10:09:05.634Z,1.00
2019-03-09T10:11:37.072Z,1.57
2019-03-09T10:14:06.463Z,1.40
2019-03-09T10:16:35.775Z,1.20
2019-03-09T10:19:05.079Z,1.40
2019-03-09T10:21:34.391Z,1.40
2019-03-09T10:24:03.714Z,1.00
2019-03-09T10:26:33.012Z,1.30
2019-03-09T10:29:02.326Z,0.90
2019-03-09T10:31:31.670Z,1.13
2019-03-09T10:34:01.012Z,0.90
2019-03-09T10:36:30.320Z,0.90
2019-03-09T10:38:59.648Z,0.90
2019-03-09T10:41:29.016Z,0.83
2019-03-09T10:43:58.322Z,0.77
2019-03-09T10:46:27.638Z,0.60
2019-03-09T10:48:56.951Z,7.57
2019-03-09T10:51:26.258Z,5.50
2019-03-09T10:53:55.586Z,5.13
2019-03-09T10:56:24.895Z,3.50
2019-03-09T10:58:54.207Z,3.13
2019-03-09T11:01:23.515Z,1.10
2019-03-09T11:03:52.835Z,3.50
2019-03-09T11:06:22.182Z,5.43
2019-03-09T11:08:51.465Z,6.50
2019-03-09T11:11:20.838Z,7.70
2019-03-09T11:13:52.148Z,4.57
2019-03-09T11:16:21.227Z,2.70
2019-03-09T11:18:50.548Z,8.10
2019-03-09T11:21:19.846Z,5.00
2019-03-09T11:23:49.197Z,5.13
2019-03-09T11:26:18.634Z,9.93
2019-03-09T11:28:48.015Z,11.47
2019-03-09T11:31:17.339Z,9.03
2019-03-09T11:33:46.653Z,7.10
2019-03-09T11:36:16.003Z,7.83
2019-03-09T11:38:45.382Z,6.13
2019-03-09T11:41:19.039Z,6.57
2019-03-09T11:43:45.756Z,7.93
2019-03-09T11:46:15.073Z,7.00
2019-03-09T11:48:44.383Z,7.70
2019-03-09T11:51:13.720Z,11.53
2019-03-09T11:53:43.046Z,10.40
2019-03-09T11:56:12.371Z,11.27
2019-03-09T11:58:41.675Z,10.07
2019-03-09T12:01:11.024Z,13.47
2019-03-09T12:03:40.382Z,9.37
2019-03-09T12:06:09.734Z,7.83
2019-03-09T12:08:39.027Z,18.40
2019-03-09T12:11:08.402Z,13.27
2019-03-09T12:13:37.709Z,12.10
2019-03-09T12:16:07.040Z,2.43
2019-03-09T12:18:36.366Z,5.20
2019-03-09T12:21:05.673Z,3.20
2019-03-09T12:23:34.986Z,1.83
2019-03-09T12:26:04.307Z,2.30
2019-03-09T12:28:33.665Z,2.90
2019-03-09T12:31:02.968Z,1.60
2019-03-09T12:33:32.285Z,2.10
2019-03-09T12:36:01.579Z,3.97
2019-03-09T12:38:30.899Z,2.30
2019-03-09T12:41:00.204Z,2.83
2019-03-09T12:43:29.773Z,1.67
2019-03-09T12:45:59.099Z,1.83
2019-03-09T12:48:28.427Z,1.30
2019-03-09T12:50:57.806Z,0.80
2019-03-09T12:53:27.122Z,1.67
2019-03-09T12:55:56.422Z,1.30
2019-03-09T12:58:25.823Z,0.83
2019-03-09T13:00:55.189Z,1.00
2019-03-09T13:03:24.561Z,1.07
2019-03-09T13:05:53.909Z,1.10
2019-03-09T13:08:23.669Z,0.90
2019-03-09T13:10:53.153Z,0.80
2019-03-09T13:13:22.587Z,0.80
2019-03-09T13:15:51.893Z,1.23
2019-03-09T13:18:21.220Z,1.07
2019-03-09T13:20:50.523Z,1.10
2019-03-09T13:23:19.833Z,1.60
2019-03-09T13:25:50.370Z,1.60
2019-03-09T13:28:19.664Z,1.00
2019-03-09T13:30:48.962Z,2.53
2019-03-09T13:33:18.332Z,6.67
2019-03-09T13:35:47.647Z,4.00
2019-03-09T13:38:16.955Z,2.80
2019-03-09T13:40:46.262Z,2.40
2019-03-09T13:43:15.651Z,2.70
2019-03-09T13:45:44.973Z,2.23
2019-03-09T13:48:14.292Z,2.97
2019-03-09T13:50:43.597Z,4.27
2019-03-09T13:53:12.901Z,2.47
2019-03-09T13:55:42.205Z,3.40
2019-03-09T13:58:11.508Z,2.30
2019-03-09T14:00:41.063Z,2.00
2019-03-09T14:03:10.511Z,2.47
2019-03-09T14:05:39.829Z,2.23
2019-03-09T14:08:09.137Z,1.87
2019-03-09T14:10:38.485Z,2.67
2019-03-09T14:13:07.801Z,1.80
2019-03-09T14:15:37.154Z,1.80
2019-03-09T14:18:06.450Z,1.50
2019-03-09T14:20:35.763Z,1.30
2019-03-09T14:23:05.067Z,1.43
2019-03-09T14:25:34.400Z,1.50
2019-03-09T14:28:03.700Z,1.30
2019-03-09T14:30:33.028Z,1.27
2019-03-09T14:33:02.340Z,1.20
2019-03-09T14:35:31.663Z,1.20
2019-03-09T14:38:00.971Z,1.40
2019-03-09T14:40:30.301Z,2.10
2019-03-09T14:42:59.612Z,3.20
2019-03-09T14:45:28.927Z,2.90
2019-03-09T14:47:58.248Z,4.55
2019-03-09T14:50:27.591Z,2.13
2019-03-09T14:52:56.898Z,1.43
2019-03-09T14:55:27.271Z,0.93
2019-03-09T14:57:56.578Z,1.57
2019-03-09T15:00:28.674Z,1.03
2019-03-09T15:02:57.979Z,1.20
2019-03-09T15:05:27.279Z,0.93
2019-03-09T15:07:56.585Z,1.47
2019-03-09T15:10:25.974Z,1.67
2019-03-09T15:12:55.300Z,1.83
2019-03-09T15:15:24.607Z,2.60
2019-03-09T15:17:53.935Z,1.20
2019-03-09T15:20:43.422Z,1.93
2019-03-09T15:23:12.752Z,0.80
2019-03-09T15:25:42.047Z,1.23
2019-03-09T15:28:11.363Z,1.00
2019-03-09T15:30:40.676Z,1.10
2019-03-09T15:33:10.018Z,2.07
2019-03-09T15:35:39.350Z,7.30
2019-03-09T15:38:08.711Z,3.73
2019-03-09T15:40:38.019Z,6.43
2019-03-09T15:43:07.343Z,4.90
2019-03-09T15:45:36.699Z,4.23
2019-03-09T15:48:06.001Z,3.53
2019-03-09T15:50:35.398Z,2.10
2019-03-09T15:53:04.786Z,3.57
2019-03-09T15:55:35.280Z,2.40
2019-03-09T15:58:04.671Z,3.03
2019-03-09T16:00:34.286Z,3.70
2019-03-09T16:03:03.774Z,4.63
2019-03-09T16:05:33.090Z,5.60
2019-03-09T16:08:03.501Z,2.83
2019-03-09T16:10:32.811Z,4.80
2019-03-09T16:13:02.144Z,5.07
2019-03-09T16:15:32.519Z,3.63
2019-03-09T16:18:01.841Z,2.97
2019-03-09T16:20:31.138Z,3.03
2019-03-09T16:23:00.456Z,2.60
2019-03-09T16:25:30.715Z,2.50
2019-03-09T16:28:00.050Z,6.97
2019-03-09T16:30:30.341Z,3.97
2019-03-09T16:32:59.656Z,3.37
2019-03-09T16:35:28.964Z,3.57
2019-03-09T16:37:58.287Z,2.97
2019-03-09T16:40:27.656Z,3.23
2019-03-09T16:42:56.978Z,4.43
2019-03-09T16:45:26.334Z,3.60
2019-03-09T16:47:55.662Z,3.10
2019-03-09T16:50:24.983Z,4.87
2019-03-09T16:52:54.304Z,2.70
2019-03-09T16:55:23.610Z,4.30
2019-03-09T16:57:52.924Z,2.60
2019-03-09T17:00:24.342Z,13.73
2019-03-09T17:02:53.704Z,18.07
2019-03-09T17:05:23.047Z,5.93
2019-03-09T17:07:52.404Z,2.63
2019-03-09T17:10:21.780Z,3.57
2019-03-09T17:12:51.102Z,3.23
2019-03-09T17:15:22.004Z,1.60
2019-03-09T17:17:51.423Z,2.23
2019-03-09T17:20:20.707Z,2.93
2019-03-09T17:22:50.290Z,2.70
2019-03-09T17:25:19.582Z,2.43
2019-03-09T17:27:48.898Z,2.07
2019-03-09T17:30:19.233Z,2.20
2019-03-09T17:32:48.595Z,1.90
2019-03-09T17:35:17.906Z,1.80
2019-03-09T17:37:47.286Z,1.30
2019-03-09T17:40:17.437Z,1.40
2019-03-09T17:42:46.769Z,1.80
2019-03-09T17:45:19.151Z,1.93
2019-03-09T17:47:49.449Z,10.63
2019-03-09T17:50:18.737Z,7.00
2019-03-09T17:52:48.060Z,13.80
2019-03-09T17:55:17.378Z,6.20
2019-03-09T17:57:46.727Z,9.00
2019-03-09T18:00:21.813Z,11.87
2019-03-09T18:02:51.134Z,4.60
2019-03-09T18:05:20.507Z,10.20
2019-03-09T18:07:49.815Z,8.37
2019-03-09T18:10:22.532Z,10.20
2019-03-09T18:12:52.802Z,3.13
2019-03-09T18:15:22.202Z,4.30
2019-03-09T18:17:52.497Z,6.30
2019-03-09T18:20:21.779Z,5.60
2019-03-09T18:22:51.089Z,6.97
2019-03-09T18:25:20.410Z,1.80
2019-03-09T18:27:49.723Z,1.97
2019-03-09T18:30:19.182Z,1.90
2019-03-09T18:32:48.542Z,1.40
2019-03-09T18:35:17.911Z,1.70
2019-03-09T18:37:47.178Z,3.10
2019-03-09T18:40:17.379Z,10.50
2019-03-09T18:42:46.711Z,13.63
2019-03-09T18:45:18.142Z,16.90
2019-03-09T18:47:47.440Z,14.03
2019-03-09T18:50:16.751Z,7.20
2019-03-09T18:52:47.411Z,10.27
2019-03-09T18:55:16.751Z,14.93
2019-03-09T18:57:46.216Z,12.20
2019-03-09T19:00:19.771Z,10.73
2019-03-09T19:02:49.258Z,16.00
2019-03-09T19:05:18.686Z,7.10
2019-03-09T19:07:48.174Z,24.33
2019-03-09T19:10:19.207Z,9.33
2019-03-09T19:12:48.530Z,7.83
2019-03-09T19:15:18.870Z,4.53
2019-03-09T19:17:48.185Z,7.20
2019-03-09T19:20:18.638Z,5.43
2019-03-09T19:22:48.020Z,4.13
2019-03-09T19:25:17.421Z,11.10
2019-03-09T19:27:46.730Z,10.43
2019-03-09T19:30:21.072Z,5.30
2019-03-09T19:32:59.995Z,3.97
2019-03-09T19:35:21.472Z,4.83
2019-03-09T19:37:51.855Z,4.10
2019-03-09T19:40:22.007Z,3.17
2019-03-09T19:42:51.318Z,5.20
2019-03-09T19:45:21.698Z,3.43
2019-03-09T19:47:51.063Z,3.93
2019-03-09T19:50:27.552Z,4.33
2019-03-09T19:52:58.920Z,3.03
2019-03-09T19:55:27.987Z,3.83
2019-03-09T19:57:57.323Z,2.37
2019-03-09T20:00:26.674Z,2.30
2019-03-09T20:02:55.984Z,2.60
2019-03-09T20:05:25.354Z,2.60
2019-03-09T20:07:54.652Z,2.30
2019-03-09T20:10:24.413Z,2.03
2019-03-09T20:12:55.043Z,2.90
2019-03-09T20:15:24.509Z,2.37
2019-03-09T20:17:53.809Z,2.63
2019-03-09T20:20:23.141Z,2.27
2019-03-09T20:22:52.615Z,2.23
2019-03-09T20:25:21.926Z,2.30
2019-03-09T20:27:51.280Z,2.53
2019-03-09T20:30:21.658Z,2.93
2019-03-09T20:32:50.958Z,2.50
2019-03-09T20:35:20.281Z,2.30
2019-03-09T20:37:49.635Z,2.47
2019-03-09T20:40:19.023Z,2.10
2019-03-09T20:42:48.442Z,1.97
2019-03-09T20:45:19.990Z,2.80
2019-03-09T20:47:49.456Z,2.83
2019-03-09T20:50:23.086Z,2.70
2019-03-09T20:52:52.607Z,2.23
2019-03-09T20:55:21.909Z,2.30
2019-03-09T20:57:51.215Z,2.47
2019-03-09T21:00:21.883Z,2.73
2019-03-09T21:02:51.317Z,2.73
2019-03-09T21:05:20.757Z,2.90
2019-03-09T21:07:50.202Z,2.83
2019-03-09T21:10:20.495Z,2.23
2019-03-09T21:13:01.127Z,2.27
2019-03-09T21:15:31.634Z,2.03
2019-03-09T21:18:00.927Z,2.33
2019-03-09T21:20:30.362Z,2.27
2019-03-09T21:22:59.751Z,2.87
2019-03-09T21:25:30.003Z,2.37
2019-03-09T21:27:59.306Z,2.40
2019-03-09T21:30:29.691Z,2.23
2019-03-09T21:32:58.999Z,3.00
2019-03-09T21:35:28.298Z,2.53
2019-03-09T21:37:57.613Z,2.13
2019-03-09T21:40:26.909Z,2.40
2019-03-09T21:42:56.223Z,2.80
2019-03-09T21:45:25.523Z,2.30
2019-03-09T21:47:54.830Z,2.53
2019-03-09T21:50:24.122Z,3.53
2019-03-09T21:52:53.435Z,3.03
2019-03-09T21:55:22.735Z,2.20
2019-03-09T21:57:52.063Z,1.87
2019-03-09T22:00:22.010Z,2.37
2019-03-09T22:02:51.325Z,2.03
2019-03-09T22:05:20.643Z,2.70
2019-03-09T22:07:49.957Z,2.30
2019-03-09T22:10:19.261Z,2.50
2019-03-09T22:12:48.568Z,2.30
2019-03-09T22:15:20.637Z,2.07
2019-03-09T22:17:49.936Z,2.17
2019-03-09T22:20:20.722Z,2.73
2019-03-09T22:22:50.202Z,2.60
2019-03-09T22:25:19.482Z,2.70
2019-03-09T22:27:48.774Z,2.00
2019-03-09T22:30:19.742Z,2.30
2019-03-09T22:32:49.041Z,2.07
2019-03-09T22:35:18.339Z,2.60
2019-03-09T22:37:47.643Z,2.10
2019-03-09T22:40:20.390Z,2.00
2019-03-09T22:42:49.681Z,2.13
2019-03-09T22:45:18.969Z,2.57
2019-03-09T22:47:48.265Z,2.57
2019-03-09T22:50:20.663Z,2.30
2019-03-09T22:52:49.958Z,2.50
2019-03-09T22:55:19.373Z,2.60
2019-03-09T23:00:42.859Z,2.63
2019-03-09T23:03:13.531Z,2.47
2019-03-09T23:05:42.853Z,2.00
2019-03-09T23:08:12.230Z,2.07
2019-03-09T23:10:41.543Z,2.93
2019-03-09T23:13:10.843Z,2.17
2019-03-09T23:15:40.149Z,2.23
2019-03-09T23:18:09.462Z,2.47
2019-03-09T23:20:38.779Z,2.10
2019-03-09T23:23:08.076Z,2.50
2019-03-09T23:25:37.392Z,2.67
2019-03-09T23:28:06.714Z,1.97
2019-03-09T23:30:36.018Z,2.17
2019-03-09T23:33:06.393Z,2.90
2019-03-09T23:35:35.695Z,2.50
2019-03-09T23:38:05.014Z,2.03
2019-03-09T23:40:34.295Z,2.87
2019-03-09T23:43:03.603Z,2.23
2019-03-09T23:45:32.902Z,1.93
2019-03-09T23:48:02.293Z,2.67
2019-03-09T23:50:31.623Z,2.20
2019-03-09T23:53:00.947Z,2.60
2019-03-09T23:55:30.304Z,2.10
2019-03-09T23:57:59.610Z,2.37
